Airfield :
LOGIN :

Register | Disclaimer

   EN    FR    IT 

 










Legend :    VFR   Marginal VFR   IFR   Intensive IFR   Very Intensive IFR
Visi :
Ceiling :
>= 8 km
>= 3000ft
5 to 8 km
1000 to 3000 ft
1500m to 5 km
500 to 1000 ft
800 to 1500m
200 to 500 ft
< 800m
< 200 ft
Symbols :   Thunderstorms  Fog  Heavy snow  Heavy precipitations  Wind > 20 kt
SIGMETs :     Misc.  Thunderstorms  Icing  Turbulence  Mountain Waves  Volcanic Ashes






- Airport Elevation : 2661 ft
- IATA code : TEE


DABS - Cheikh Larbi Tebessi

CURRENT METAR :
  • 012300Z 10004KT 9999 FEW040 06/03 Q1016

EXPIRED METARs :
  • 012200Z 10002KT 9999 SCT040 06/03 Q1016
  • 012100Z 12004KT 9999 SCT040 09/04 Q1016

TAF TAF DABS
Valid from the 02 at 00:00 until the 03 at 00:00 UTC


012300Z 0200/0224 14008KT 9999 FEW033 SCT040
TEMPO 0202/0209 2000 BR SCT008
PROB40
TEMPO 0205/0208 0100 FG
TEMPO 0212/0224 FEW030CB
PROB40
TEMPO 0218/0224 33014KT 4000 -TSRA



MET'MAP, your aeronautical weather chart ! - Copyright ORBIFLY December 2007 - Disclaimer

ORBIFLY MET'MAP TEAM :

Programming & Development : Alexandra Zaïnal
Concept & original design : Baudouin d'Aumeries
Assistance for programming : Marc-Olivier Méhu
Technical & hardware support : Manuel Goepfert

Contact : metmap@orbifly.com




SOURCES & CREDITS :

   NOAA